Westlake, OR (97493)

2:57 PM PST on December 19, 2014 (GMT -0800)
RAWS DUNES OR US | Change Station
CLOSE
Current Station
Personal Weather Station
Location: Westlake, OR
Elevation: 120 ft
Nearby Weather Stations

Elev 120 ft 43.96 °N, 124.12 °W | Updated 53 minutes ago

Mostly Cloudy
Mostly Cloudy
52 °F
Feels Like 52 °F
N
5
Wind Variable Wind from SSE
Gusts 15.0 mph

Today
High -- | Low -- °F
--% Chance of Precip.
Yesterday
High -- | Low -- °F
Precip. -- in
7:46 AM 4:40 PM
Waning Crescent, 6% visible
Pressure 30.01 in
Visibility 10.0 miles
Clouds Mostly Cloudy 2500 ft
Mostly Cloudy 3000 ft
Overcast 4900 ft
Dew Point 48 °F
Humidity 87%
Rainfall 1.69 in
Snow Depth Not available.
UV 0 out of 12
Pollen .50 out of 12
Air Quality Not available.
Flu Activity Not available.
METAR KOTH 192215Z 14009KT 10SM BKN025 BKN030 OVC049 11/10 A3001 RMK AO1

More Conditions Fewer Conditions

Pressure 30.01 in
Visibility 10.0 miles
Clouds Mostly Cloudy 2500 ft
Mostly Cloudy 3000 ft
Overcast 4900 ft
Dew Point 48 °F
Humidity 87%
Rainfall 1.69 in
Snow Depth Not available.
UV 0 out of 12
Pollen .50 out of 12
Air Quality Not available.
Flu Activity Not available.
METAR KOTH 192215Z 14009KT 10SM BKN025 BKN030 OVC049 11/10 A3001 RMK AO1

More Conditions Fewer Conditions

10-Day Weather Forecast

Almanac

Astronomy

Dec. 19, 2014 Rise Set
Actual Time
Civil Twilight
Nautical Twilight
Astronomical Twilight
Moon
Length of Visible Light
Length of Day
Tomorrow will be .
, % of the Moon is Illuminated

Today's Extremes

State Highs State Lows

Community

WunderPhotos

Upload Photos

1,779,071 photos uploaded!

WunderBlogs® & News

Nearby

Air Quality

  Air Quality AQ Index Pollutant
Not available.

Snow Depth

Station Depth Elevation

Earthquake Activity

City Distance Mag. Time & Date
Minimum magnitude displayed is 2.5.

Coastal Water Temperatures

Place Temperature

Nearby Weather Stations